Search for airport 
image banner adimage banner adimage banner ad
image banner ad

PS52 - Alberter Farms

Located in Johnstown, United States

ICAO - PS52, IATA -

Data provided by Airmate  

General information

Coordinates: N40°11'42" W78°49'58"
Elevation is 2070 feet MSL.
Magnetic variation is -08° East
View others Airports in Pennsylvania

Operational data

Special qualification required
Current time UTC:
Current local time:
METAR: KJST 061254Z AUTO 32010KT 10SM FEW015 SCT020 06/01 A3008 RMK AO2 SLP197 T00560011
TAF: KJST 061130Z 0612/0712 32007KT P6SM BKN006 OVC012 FM061500 31008KT P6SM SCT030 FM070100 15007KT P6SM SCT100 BKN250 FM071100 18007KT P6SM BKN035 OVC100
View NOTAMs / SUP AIP / TFR affecting this airport [VIEW]
Communications frequencies: [VIEW]

Runways:

RWY identifierQFULength (ft)Width (ft)SurfaceLDA (ft)
082600100GRASS
262600100GRASS

Airport contact information

Address: Johnstown United States

Satellite view of PS52